sensor_id;sensor_type;location;lat;lon;timestamp;pressure;altitude;pressure_sealevel;temperature;humidity
79791;BME280;69278;52.220;5.172;2024-01-11T00:01:45;103394.50;;;-2.52;64.84
79791;BME280;69278;52.220;5.172;2024-01-11T00:04:11;103433.34;;;-2.28;65.22
79791;BME280;69278;52.220;5.172;2024-01-11T00:06:44;103425.56;;;-2.35;64.94
79791;BME280;69278;52.220;5.172;2024-01-11T00:09:11;103447.94;;;-2.28;65.49
79791;BME280;69278;52.220;5.172;2024-01-11T00:11:38;103445.34;;;-2.31;65.56
79791;BME280;69278;52.220;5.172;2024-01-11T00:14:05;103422.91;;;-2.46;65.24
79791;BME280;69278;52.220;5.172;2024-01-11T00:16:31;103441.00;;;-2.40;65.79
79791;BME280;69278;52.220;5.172;2024-01-11T00:18:58;103439.28;;;-2.42;65.64
79791;BME280;69278;52.220;5.172;2024-01-11T00:21:25;103417.72;;;-2.52;65.99
79791;BME280;69278;52.220;5.172;2024-01-11T00:23:51;103435.81;;;-2.46;65.53
79791;BME280;69278;52.220;5.172;2024-01-11T00:26:18;103434.94;;;-2.46;65.62
79791;BME280;69278;52.220;5.172;2024-01-11T00:28:44;103441.81;;;-2.48;66.02
79791;BME280;69278;52.220;5.172;2024-01-11T00:31:11;103406.44;;;-2.66;65.63
79791;BME280;69278;52.220;5.172;2024-01-11T00:33:39;103434.88;;;-2.54;66.61
79791;BME280;69278;52.220;5.172;2024-01-11T00:36:05;103428.03;;;-2.52;66.45
79791;BME280;69278;52.220;5.172;2024-01-11T00:38:32;103395.25;;;-2.70;65.76
79791;BME280;69278;52.220;5.172;2024-01-11T00:40:58;103396.97;;;-2.70;66.62
79791;BME280;69278;52.220;5.172;2024-01-11T00:43:25;103434.91;;;-2.52;66.31
79791;BME280;69278;52.220;5.172;2024-01-11T00:45:51;103431.44;;;-2.56;67.04
79791;BME280;69278;52.220;5.172;2024-01-11T00:48:18;103425.47;;;-2.52;66.30
79791;BME280;69278;52.220;5.172;2024-01-11T00:50:44;103437.47;;;-2.51;66.39
79791;BME280;69278;52.220;5.172;2024-01-11T00:53:11;103433.19;;;-2.52;66.54
79791;BME280;69278;52.220;5.172;2024-01-11T00:55:40;103384.84;;;-2.80;66.03
79791;BME280;69278;52.220;5.172;2024-01-11T00:58:07;103430.50;;;-2.67;66.55
79791;BME280;69278;52.220;5.172;2024-01-11T01:00:33;103424.47;;;-2.69;66.22
79791;BME280;69278;52.220;5.172;2024-01-11T01:03:00;103438.28;;;-2.62;66.59
79791;BME280;69278;52.220;5.172;2024-01-11T01:05:26;103429.66;;;-2.63;66.43
79791;BME280;69278;52.220;5.172;2024-01-11T01:07:53;103435.66;;;-2.65;66.30
79791;BME280;69278;52.220;5.172;2024-01-11T01:10:20;103419.25;;;-2.75;66.54
79791;BME280;69278;52.220;5.172;2024-01-11T01:12:46;103424.38;;;-2.78;66.66
79791;BME280;69278;52.220;5.172;2024-01-11T01:15:13;103422.69;;;-2.79;66.35
79791;BME280;69278;52.220;5.172;2024-01-11T01:17:41;103447.69;;;-2.69;66.43
79791;BME280;69278;52.220;5.172;2024-01-11T01:20:08;103450.22;;;-2.71;67.23
79791;BME280;69278;52.220;5.172;2024-01-11T01:22:35;103433.84;;;-2.82;67.16
79791;BME280;69278;52.220;5.172;2024-01-11T01:25:01;103450.22;;;-2.75;67.09
79791;BME280;69278;52.220;5.172;2024-01-11T01:27:28;103454.50;;;-2.77;66.80
79791;BME280;69278;52.220;5.172;2024-01-11T01:29:54;103440.66;;;-2.85;67.45
79791;BME280;69278;52.220;5.172;2024-01-11T01:32:21;103448.47;;;-2.79;67.70
79791;BME280;69278;52.220;5.172;2024-01-11T01:34:48;103432.03;;;-2.90;67.89
79791;BME280;69278;52.220;5.172;2024-01-11T01:37:14;103438.06;;;-2.90;67.02
79791;BME280;69278;52.220;5.172;2024-01-11T01:39:41;103453.56;;;-2.85;67.56
79791;BME280;69278;52.220;5.172;2024-01-11T01:42:07;103458.75;;;-2.84;67.72
79791;BME280;69278;52.220;5.172;2024-01-11T01:44:34;103456.13;;;-2.87;67.92
79791;BME280;69278;52.220;5.172;2024-01-11T01:47:02;103450.03;;;-2.96;67.34
79791;BME280;69278;52.220;5.172;2024-01-11T01:49:30;103453.50;;;-2.93;67.95
79791;BME280;69278;52.220;5.172;2024-01-11T01:51:57;103442.25;;;-3.02;68.71
79791;BME280;69278;52.220;5.172;2024-01-11T01:54:24;103467.28;;;-2.89;67.76
79791;BME280;69278;52.220;5.172;2024-01-11T01:56:51;103468.13;;;-2.92;68.12
79791;BME280;69278;52.220;5.172;2024-01-11T01:59:20;103443.06;;;-3.05;68.22
79791;BME280;69278;52.220;5.172;2024-01-11T02:01:47;103462.06;;;-2.98;67.84
79791;BME280;69278;52.220;5.172;2024-01-11T02:04:14;103476.69;;;-2.94;67.98
79791;BME280;69278;52.220;5.172;2024-01-11T02:06:44;103422.25;;;-3.30;68.15
79791;BME280;69278;52.220;5.172;2024-01-11T02:09:12;103480.94;;;-2.99;68.74
79791;BME280;69278;52.220;5.172;2024-01-11T02:11:41;103450.69;;;-3.20;68.41
79791;BME280;69278;52.220;5.172;2024-01-11T02:14:08;103477.50;;;-3.01;68.38
79791;BME280;69278;52.220;5.172;2024-01-11T02:16:35;103462.81;;;-3.07;69.44
79791;BME280;69278;52.220;5.172;2024-01-11T02:19:01;103471.50;;;-2.99;68.40
79791;BME280;69278;52.220;5.172;2024-01-11T02:21:28;103471.50;;;-2.97;68.20
79791;BME280;69278;52.220;5.172;2024-01-11T02:24:06;103456.00;;;-3.00;68.50
79791;BME280;69278;52.220;5.172;2024-01-11T02:26:33;103456.97;;;-2.91;69.04
79791;BME280;69278;52.220;5.172;2024-01-11T02:29:00;103463.00;;;-2.89;69.09
79791;BME280;69278;52.220;5.172;2024-01-11T02:31:27;103439.66;;;-3.04;69.25
79791;BME280;69278;52.220;5.172;2024-01-11T02:33:54;103459.47;;;-2.97;68.91
79791;BME280;69278;52.220;5.172;2024-01-11T02:36:22;103422.28;;;-3.24;69.25
79791;BME280;69278;52.220;5.172;2024-01-11T02:38:48;103451.69;;;-3.06;69.05
79791;BME280;69278;52.220;5.172;2024-01-11T02:41:18;103371.41;;;-3.50;69.53
79791;BME280;69278;52.220;5.172;2024-01-11T02:43:47;103450.88;;;-2.99;68.76
79791;BME280;69278;52.220;5.172;2024-01-11T02:46:17;103454.31;;;-2.98;69.35
79791;BME280;69278;52.220;5.172;2024-01-11T02:48:43;103435.31;;;-3.11;69.09
79791;BME280;69278;52.220;5.172;2024-01-11T02:51:10;103453.38;;;-3.05;69.64
79791;BME280;69278;52.220;5.172;2024-01-11T02:53:37;103459.41;;;-3.06;68.95
79791;BME280;69278;52.220;5.172;2024-01-11T02:56:04;103464.50;;;-3.12;68.99
79791;BME280;69278;52.220;5.172;2024-01-11T02:58:30;103464.50;;;-3.13;69.08
79791;BME280;69278;52.220;5.172;2024-01-11T03:00:57;103452.38;;;-3.22;68.73
79791;BME280;69278;52.220;5.172;2024-01-11T03:03:24;103461.88;;;-3.18;69.56
79791;BME280;69278;52.220;5.172;2024-01-11T03:05:50;103460.13;;;-3.19;69.43
79791;BME280;69278;52.220;5.172;2024-01-11T03:08:17;103467.81;;;-3.22;69.46
79791;BME280;69278;52.220;5.172;2024-01-11T03:10:43;103470.41;;;-3.22;69.20
79791;BME280;69278;52.220;5.172;2024-01-11T03:13:10;103465.19;;;-3.28;69.39
79791;BME280;69278;52.220;5.172;2024-01-11T03:15:36;103474.59;;;-3.31;69.95
79791;BME280;69278;52.220;5.172;2024-01-11T03:18:03;103475.44;;;-3.36;70.02
79791;BME280;69278;52.220;5.172;2024-01-11T03:20:30;103467.56;;;-3.46;70.57
79791;BME280;69278;52.220;5.172;2024-01-11T03:22:56;103450.31;;;-3.56;70.42
79791;BME280;69278;52.220;5.172;2024-01-11T03:25:23;103444.22;;;-3.66;70.81
79791;BME280;69278;52.220;5.172;2024-01-11T03:27:49;103470.97;;;-3.52;71.78
79791;BME280;69278;52.220;5.172;2024-01-11T03:30:16;103458.78;;;-3.65;71.59
79791;BME280;69278;52.220;5.172;2024-01-11T03:32:43;103484.59;;;-3.60;71.84
79791;BME280;69278;52.220;5.172;2024-01-11T03:35:10;103457.88;;;-3.70;72.44
79791;BME280;69278;52.220;5.172;2024-01-11T03:37:37;103414.59;;;-4.01;72.69
79791;BME280;69278;52.220;5.172;2024-01-11T03:40:04;103475.94;;;-3.65;71.87
79791;BME280;69278;52.220;5.172;2024-01-11T03:42:31;103475.00;;;-3.72;72.40
79791;BME280;69278;52.220;5.172;2024-01-11T03:44:57;103437.84;;;-3.93;73.59
79791;BME280;69278;52.220;5.172;2024-01-11T03:47:24;103443.94;;;-3.87;72.42
79791;BME280;69278;52.220;5.172;2024-01-11T03:49:50;103455.97;;;-3.84;72.46
79791;BME280;69278;52.220;5.172;2024-01-11T03:52:17;103473.28;;;-3.73;73.01
79791;BME280;69278;52.220;5.172;2024-01-11T03:54:43;103474.16;;;-3.72;73.33
79791;BME280;69278;52.220;5.172;2024-01-11T03:57:10;103492.16;;;-3.72;73.40
79791;BME280;69278;52.220;5.172;2024-01-11T03:59:36;103480.94;;;-3.77;72.56
79791;BME280;69278;52.220;5.172;2024-01-11T04:02:03;103478.31;;;-3.82;73.07
79791;BME280;69278;52.220;5.172;2024-01-11T04:04:30;103469.66;;;-3.87;73.76
79791;BME280;69278;52.220;5.172;2024-01-11T04:06:56;103480.09;;;-3.78;73.53
79791;BME280;69278;52.220;5.172;2024-01-11T04:09:23;103493.03;;;-3.73;73.51
79791;BME280;69278;52.220;5.172;2024-01-11T04:11:49;103501.63;;;-3.71;73.67
79791;BME280;69278;52.220;5.172;2024-01-11T04:14:16;103502.50;;;-3.71;73.91
79791;BME280;69278;52.220;5.172;2024-01-11T04:16:42;103498.03;;;-3.84;74.15
79791;BME280;69278;52.220;5.172;2024-01-11T04:19:09;103517.03;;;-3.73;74.15
79791;BME280;69278;52.220;5.172;2024-01-11T04:21:36;103503.28;;;-3.78;73.95
79791;BME280;69278;52.220;5.172;2024-01-11T04:24:05;103521.34;;;-3.72;73.52
79791;BME280;69278;52.220;5.172;2024-01-11T04:26:34;103519.63;;;-3.73;73.49
79791;BME280;69278;52.220;5.172;2024-01-11T04:29:01;103517.81;;;-3.80;74.23
79791;BME280;69278;52.220;5.172;2024-01-11T04:31:28;103480.63;;;-4.02;74.62
79791;BME280;69278;52.220;5.172;2024-01-11T04:33:54;103516.06;;;-3.82;75.08
79791;BME280;69278;52.220;5.172;2024-01-11T04:36:21;103514.31;;;-3.85;74.79
79791;BME280;69278;52.220;5.172;2024-01-11T04:38:47;103502.25;;;-3.90;74.58
79791;BME280;69278;52.220;5.172;2024-01-11T04:41:15;103529.91;;;-3.76;74.48
79791;BME280;69278;52.220;5.172;2024-01-11T04:43:44;103518.72;;;-3.76;74.62
79791;BME280;69278;52.220;5.172;2024-01-11T04:46:21;103524.59;;;-3.88;74.56
79791;BME280;69278;52.220;5.172;2024-01-11T04:48:49;103522.13;;;-3.79;75.06
79791;BME280;69278;52.220;5.172;2024-01-11T04:51:16;103515.19;;;-3.84;75.13
79791;BME280;69278;52.220;5.172;2024-01-11T04:53:44;103493.50;;;-4.03;75.05
79791;BME280;69278;52.220;5.172;2024-01-11T04:56:15;103507.34;;;-3.92;74.79
79791;BME280;69278;52.220;5.172;2024-01-11T04:58:43;103520.31;;;-3.86;75.18
79791;BME280;69278;52.220;5.172;2024-01-11T05:01:16;103523.75;;;-3.85;75.22
79791;BME280;69278;52.220;5.172;2024-01-11T05:03:44;103509.25;;;-3.80;75.73
79791;BME280;69278;52.220;5.172;2024-01-11T05:06:17;103516.88;;;-3.85;75.50
79791;BME280;69278;52.220;5.172;2024-01-11T05:08:46;103490.19;;;-3.93;74.90
79791;BME280;69278;52.220;5.172;2024-01-11T05:11:19;103483.25;;;-3.97;75.10
79791;BME280;69278;52.220;5.172;2024-01-11T05:13:48;103527.31;;;-3.74;74.72
79791;BME280;69278;52.220;5.172;2024-01-11T05:16:26;103513.63;;;-3.73;75.42
79791;BME280;69278;52.220;5.172;2024-01-11T05:18:55;103475.53;;;-4.00;75.42
79791;BME280;69278;52.220;5.172;2024-01-11T05:21:22;103519.66;;;-3.70;75.68
79791;BME280;69278;52.220;5.172;2024-01-11T05:23:49;103513.69;;;-3.69;75.94
79791;BME280;69278;52.220;5.172;2024-01-11T05:26:16;103510.28;;;-3.66;75.56
79791;BME280;69278;52.220;5.172;2024-01-11T05:28:43;103502.56;;;-3.65;76.35
79791;BME280;69278;52.220;5.172;2024-01-11T05:31:11;103480.22;;;-3.67;75.43
79791;BME280;69278;52.220;5.172;2024-01-11T05:33:39;103484.59;;;-3.60;75.42
79791;BME280;69278;52.220;5.172;2024-01-11T05:36:06;103478.59;;;-3.58;75.05
79791;BME280;69278;52.220;5.172;2024-01-11T05:38:33;103472.59;;;-3.60;75.30
79791;BME280;69278;52.220;5.172;2024-01-11T05:41:00;103489.78;;;-3.56;75.28
79791;BME280;69278;52.220;5.172;2024-01-11T05:43:26;103500.94;;;-3.57;74.90
79791;BME280;69278;52.220;5.172;2024-01-11T05:45:53;103471.53;;;-3.75;75.20
79791;BME280;69278;52.220;5.172;2024-01-11T05:48:19;103476.84;;;-3.60;75.10
79791;BME280;69278;52.220;5.172;2024-01-11T05:50:46;103475.13;;;-3.63;75.29
79791;BME280;69278;52.220;5.172;2024-01-11T05:53:13;103478.56;;;-3.62;74.53
79791;BME280;69278;52.220;5.172;2024-01-11T05:55:40;103498.31;;;-3.61;74.55
79791;BME280;69278;52.220;5.172;2024-01-11T05:58:06;103491.34;;;-3.70;74.61
79791;BME280;69278;52.220;5.172;2024-01-11T06:00:33;103528.47;;;-3.53;74.66
79791;BME280;69278;52.220;5.172;2024-01-11T06:03:00;103530.16;;;-3.55;74.62
79791;BME280;69278;52.220;5.172;2024-01-11T06:05:26;103522.41;;;-3.56;75.02
79791;BME280;69278;52.220;5.172;2024-01-11T06:07:53;103523.25;;;-3.57;75.33
79791;BME280;69278;52.220;5.172;2024-01-11T06:10:19;103524.06;;;-3.61;75.39
79791;BME280;69278;52.220;5.172;2024-01-11T06:12:46;103530.09;;;-3.58;75.10
79791;BME280;69278;52.220;5.172;2024-01-11T06:15:12;103553.28;;;-3.58;75.14
79791;BME280;69278;52.220;5.172;2024-01-11T06:17:39;103560.13;;;-3.61;74.69
79791;BME280;69278;52.220;5.172;2024-01-11T06:20:06;103581.53;;;-3.64;74.70
79791;BME280;69278;52.220;5.172;2024-01-11T06:22:32;103595.19;;;-3.68;75.06
79791;BME280;69278;52.220;5.172;2024-01-11T06:24:59;103572.56;;;-3.91;74.57
79791;BME280;69278;52.220;5.172;2024-01-11T06:27:26;103568.28;;;-3.92;75.18
79791;BME280;69278;52.220;5.172;2024-01-11T06:29:52;103598.53;;;-3.75;75.41
79791;BME280;69278;52.220;5.172;2024-01-11T06:32:19;103584.72;;;-3.83;75.45
79791;BME280;69278;52.220;5.172;2024-01-11T06:34:45;103595.06;;;-3.78;75.02
79791;BME280;69278;52.220;5.172;2024-01-11T06:37:13;103610.47;;;-3.81;74.97
79791;BME280;69278;52.220;5.172;2024-01-11T06:39:40;103613.00;;;-3.84;75.17
79791;BME280;69278;52.220;5.172;2024-01-11T06:42:06;103610.34;;;-3.87;75.85
79791;BME280;69278;52.220;5.172;2024-01-11T06:44:33;103525.47;;;-4.44;75.45
79791;BME280;69278;52.220;5.172;2024-01-11T06:46:59;103601.69;;;-3.95;75.12
79791;BME280;69278;52.220;5.172;2024-01-11T06:49:28;103607.72;;;-3.93;75.51
79791;BME280;69278;52.220;5.172;2024-01-11T06:51:54;103618.97;;;-3.87;75.63
79791;BME280;69278;52.220;5.172;2024-01-11T06:54:21;103618.09;;;-3.87;75.70
79791;BME280;69278;52.220;5.172;2024-01-11T06:56:47;103618.91;;;-3.90;75.32
79791;BME280;69278;52.220;5.172;2024-01-11T06:59:14;103605.06;;;-3.98;76.24
79791;BME280;69278;52.220;5.172;2024-01-11T07:01:44;103630.06;;;-3.91;76.61
79791;BME280;69278;52.220;5.172;2024-01-11T07:04:11;103615.44;;;-3.95;75.90
79791;BME280;69278;52.220;5.172;2024-01-11T07:06:38;103613.75;;;-3.90;75.77
79791;BME280;69278;52.220;5.172;2024-01-11T07:09:05;103587.00;;;-4.01;76.22
79791;BME280;69278;52.220;5.172;2024-01-11T07:11:32;103609.53;;;-3.88;75.97
79791;BME280;69278;52.220;5.172;2024-01-11T07:13:59;103610.41;;;-3.86;75.75
79791;BME280;69278;52.220;5.172;2024-01-11T07:16:25;103599.28;;;-3.82;76.43
79791;BME280;69278;52.220;5.172;2024-01-11T07:18:52;103588.22;;;-3.78;76.48
79791;BME280;69278;52.220;5.172;2024-01-11T07:21:22;103583.06;;;-3.78;75.87
79791;BME280;69278;52.220;5.172;2024-01-11T07:23:56;103566.78;;;-3.75;76.18
79791;BME280;69278;52.220;5.172;2024-01-11T07:26:25;103582.38;;;-3.63;75.41
79791;BME280;69278;52.220;5.172;2024-01-11T07:28:53;103529.63;;;-3.95;75.22
79791;BME280;69278;52.220;5.172;2024-01-11T07:31:21;103593.59;;;-3.60;75.14
79791;BME280;69278;52.220;5.172;2024-01-11T07:33:48;103572.09;;;-3.63;75.41
79791;BME280;69278;52.220;5.172;2024-01-11T07:36:15;103586.81;;;-3.55;75.07
79791;BME280;69278;52.220;5.172;2024-01-11T07:38:41;103583.41;;;-3.52;74.82
79791;BME280;69278;52.220;5.172;2024-01-11T07:41:08;103578.16;;;-3.60;74.69
79791;BME280;69278;52.220;5.172;2024-01-11T07:43:34;103598.00;;;-3.51;74.49
79791;BME280;69278;52.220;5.172;2024-01-11T07:46:18;103585.00;;;-3.62;75.47
79791;BME280;69278;52.220;5.172;2024-01-11T07:48:44;103598.88;;;-3.51;75.42
79791;BME280;69278;52.220;5.172;2024-01-11T07:51:11;103580.50;;;-2.17;79.52
79791;BME280;69278;52.220;5.172;2024-01-11T07:53:38;103581.97;;;-1.00;80.06
79791;BME280;69278;52.220;5.172;2024-01-11T07:56:04;103573.41;;;-0.25;76.19
79791;BME280;69278;52.220;5.172;2024-01-11T07:58:31;103564.72;;;0.18;72.35
79791;BME280;69278;52.220;5.172;2024-01-11T08:00:57;103584.44;;;0.68;71.02
79791;BME280;69278;52.220;5.172;2024-01-11T08:03:24;103576.50;;;0.98;66.82
79791;BME280;69278;52.220;5.172;2024-01-11T08:05:50;103571.16;;;1.19;65.12
79791;BME280;69278;52.220;5.172;2024-01-11T08:08:17;103565.06;;;1.30;63.28
79791;BME280;69278;52.220;5.172;2024-01-11T08:10:44;103561.53;;;1.38;62.78
79791;BME280;69278;52.220;5.172;2024-01-11T08:13:10;103550.25;;;1.39;62.21
79791;BME280;69278;52.220;5.172;2024-01-11T08:15:37;103546.00;;;1.28;61.98
79791;BME280;69278;52.220;5.172;2024-01-11T08:18:04;103560.72;;;1.29;61.94
79791;BME280;69278;52.220;5.172;2024-01-11T08:20:31;103542.66;;;1.14;61.83
79791;BME280;69278;52.220;5.172;2024-01-11T08:22:59;103557.34;;;1.14;62.46
79791;BME280;69278;52.220;5.172;2024-01-11T08:25:25;103550.47;;;1.13;61.34
79791;BME280;69278;52.220;5.172;2024-01-11T08:27:52;103529.81;;;0.96;61.38
79791;BME280;69278;52.220;5.172;2024-01-11T08:30:18;103577.13;;;1.31;61.90
79791;BME280;69278;52.220;5.172;2024-01-11T08:32:45;103589.94;;;1.59;60.54
79791;BME280;69278;52.220;5.172;2024-01-11T08:35:12;103573.41;;;1.67;60.12
79791;BME280;69278;52.220;5.172;2024-01-11T08:37:39;103565.63;;;1.69;58.63
79791;BME280;69278;52.220;5.172;2024-01-11T08:40:06;103570.81;;;1.69;58.50
79791;BME280;69278;52.220;5.172;2024-01-11T08:42:33;103543.22;;;1.54;58.50
79791;BME280;69278;52.220;5.172;2024-01-11T08:44:59;103602.66;;;1.90;58.19
79791;BME280;69278;52.220;5.172;2024-01-11T08:47:33;103610.41;;;1.95;57.97
79791;BME280;69278;52.220;5.172;2024-01-11T08:50:01;103606.81;;;2.08;59.21
79791;BME280;69278;52.220;5.172;2024-01-11T08:52:32;103598.00;;;2.23;60.21
79791;BME280;69278;52.220;5.172;2024-01-11T08:54:59;103627.06;;;1.71;58.69
79791;BME280;69278;52.220;5.172;2024-01-11T08:57:26;103643.22;;;0.64;59.19
79791;BME280;69278;52.220;5.172;2024-01-11T08:59:53;103607.06;;;-0.30;60.54
79791;BME280;69278;52.220;5.172;2024-01-11T09:02:20;103657.06;;;-0.64;62.42
79791;BME280;69278;52.220;5.172;2024-01-11T09:04:52;103666.44;;;-1.02;63.52
79791;BME280;69278;52.220;5.172;2024-01-11T09:07:18;103672.34;;;-1.27;65.07
79791;BME280;69278;52.220;5.172;2024-01-11T09:09:45;103660.22;;;-1.39;65.85
79791;BME280;69278;52.220;5.172;2024-01-11T09:12:22;103654.13;;;-1.47;66.20
79791;BME280;69278;52.220;5.172;2024-01-11T09:14:48;103648.13;;;-1.46;67.68
79791;BME280;69278;52.220;5.172;2024-01-11T09:17:15;103642.06;;;-1.51;68.48
79791;BME280;69278;52.220;5.172;2024-01-11T09:19:41;103642.91;;;-1.52;69.45
79791;BME280;69278;52.220;5.172;2024-01-11T09:22:08;103640.31;;;-1.52;71.07
79791;BME280;69278;52.220;5.172;2024-01-11T09:24:36;103630.84;;;-1.50;69.15
79791;BME280;69278;52.220;5.172;2024-01-11T09:27:05;103654.16;;;-1.38;71.51
79791;BME280;69278;52.220;5.172;2024-01-11T09:29:32;103646.44;;;-1.35;72.66
79791;BME280;69278;52.220;5.172;2024-01-11T09:31:59;103630.06;;;-1.43;74.06
79791;BME280;69278;52.220;5.172;2024-01-11T09:34:26;103665.44;;;-1.27;74.56
79791;BME280;69278;52.220;5.172;2024-01-11T09:36:53;103661.97;;;-1.30;75.59
79791;BME280;69278;52.220;5.172;2024-01-11T09:39:19;103671.50;;;-1.22;72.05
79791;BME280;69278;52.220;5.172;2024-01-11T09:41:53;103631.75;;;-1.42;76.07
79791;BME280;69278;52.220;5.172;2024-01-11T09:44:25;103638.72;;;-1.32;73.83
79791;BME280;69278;52.220;5.172;2024-01-11T09:46:53;103662.91;;;-1.15;74.05
79791;BME280;69278;52.220;5.172;2024-01-11T09:49:22;103634.44;;;-1.27;74.60
79791;BME280;69278;52.220;5.172;2024-01-11T09:51:49;103651.75;;;-1.09;77.64
79791;BME280;69278;52.220;5.172;2024-01-11T09:54:18;103656.06;;;-1.07;76.81
79791;BME280;69278;52.220;5.172;2024-01-11T09:56:48;103637.94;;;-1.08;75.44
79791;BME280;69278;52.220;5.172;2024-01-11T09:59:18;103602.63;;;-1.08;77.58
79791;BME280;69278;52.220;5.172;2024-01-11T10:01:46;103630.28;;;-0.80;76.30
79791;BME280;69278;52.220;5.172;2024-01-11T10:04:14;103657.06;;;-0.59;76.84
79791;BME280;69278;52.220;5.172;2024-01-11T10:06:42;103649.25;;;-0.75;76.92
79791;BME280;69278;52.220;5.172;2024-01-11T10:09:09;103676.91;;;-0.61;77.13
79791;BME280;69278;52.220;5.172;2024-01-11T10:11:37;103639.75;;;-0.85;76.09
79791;BME280;69278;52.220;5.172;2024-01-11T10:14:04;103672.59;;;-0.58;77.30
79791;BME280;69278;52.220;5.172;2024-01-11T10:16:31;103685.56;;;-0.56;77.71
79791;BME280;69278;52.220;5.172;2024-01-11T10:18:58;103666.56;;;-0.58;77.45
79791;BME280;69278;52.220;5.172;2024-01-11T10:21:26;103678.66;;;-0.45;77.69
79791;BME280;69278;52.220;5.172;2024-01-11T10:23:53;103680.41;;;-0.38;77.50
79791;BME280;69278;52.220;5.172;2024-01-11T10:26:20;103653.63;;;-0.48;77.41
79791;BME280;69278;52.220;5.172;2024-01-11T10:28:48;103670.06;;;-0.32;77.38
79791;BME280;69278;52.220;5.172;2024-01-11T10:31:14;103637.25;;;-0.48;77.32
79791;BME280;69278;52.220;5.172;2024-01-11T10:33:45;103667.47;;;-0.34;77.64
79791;BME280;69278;52.220;5.172;2024-01-11T10:36:11;103668.34;;;-0.32;77.08
79791;BME280;69278;52.220;5.172;2024-01-11T10:38:39;103677.00;;;-0.22;77.29
79791;BME280;69278;52.220;5.172;2024-01-11T10:41:06;103668.34;;;-0.29;77.88
79791;BME280;69278;52.220;5.172;2024-01-11T10:43:37;103688.22;;;-0.17;77.14
79791;BME280;69278;52.220;5.172;2024-01-11T10:46:05;103661.47;;;-0.22;77.66
79791;BME280;69278;52.220;5.172;2024-01-11T10:48:38;103702.88;;;-0.04;77.65
79791;BME280;69278;52.220;5.172;2024-01-11T10:51:08;103702.91;;;-0.06;78.14
79791;BME280;69278;52.220;5.172;2024-01-11T10:53:44;103693.38;;;-0.07;78.08
79791;BME280;69278;52.220;5.172;2024-01-11T10:56:15;103695.13;;;-0.15;76.59
79791;BME280;69278;52.220;5.172;2024-01-11T10:58:45;103705.47;;;-0.04;77.91
79791;BME280;69278;52.220;5.172;2024-01-11T11:01:13;103653.66;;;-0.31;78.45
79791;BME280;69278;52.220;5.172;2024-01-11T11:03:40;103717.59;;;-0.03;79.19
79791;BME280;69278;52.220;5.172;2024-01-11T11:06:10;103638.13;;;-0.42;78.04
79791;BME280;69278;52.220;5.172;2024-01-11T11:08:39;103705.50;;;-0.06;77.78
79791;BME280;69278;52.220;5.172;2024-01-11T11:11:06;103680.47;;;-0.17;79.20
79791;BME280;69278;52.220;5.172;2024-01-11T11:13:34;103706.34;;;0.04;78.05
79791;BME280;69278;52.220;5.172;2024-01-11T11:16:04;103689.09;;;-0.03;78.28
79791;BME280;69278;52.220;5.172;2024-01-11T11:18:35;103586.34;;;-0.57;78.67
79791;BME280;69278;52.220;5.172;2024-01-11T11:21:11;103698.59;;;0.09;80.00
79791;BME280;69278;52.220;5.172;2024-01-11T11:23:38;103677.84;;;0.09;79.71
79791;BME280;69278;52.220;5.172;2024-01-11T11:26:06;103673.53;;;0.06;78.62
79791;BME280;69278;52.220;5.172;2024-01-11T11:28:34;103666.63;;;0.14;80.59
79791;BME280;69278;52.220;5.172;2024-01-11T11:31:02;103689.94;;;0.31;80.87
79791;BME280;69278;52.220;5.172;2024-01-11T11:33:29;103689.06;;;0.35;80.24
79791;BME280;69278;52.220;5.172;2024-01-11T11:35:58;103617.41;;;0.04;80.28
79791;BME280;69278;52.220;5.172;2024-01-11T11:38:29;103676.94;;;0.44;80.87
79791;BME280;69278;52.220;5.172;2024-01-11T11:40:57;103677.81;;;0.49;81.10
79791;BME280;69278;52.220;5.172;2024-01-11T11:43:26;103670.88;;;0.54;81.58
79791;BME280;69278;52.220;5.172;2024-01-11T11:45:54;103674.34;;;0.62;81.03
79791;BME280;69278;52.220;5.172;2024-01-11T11:53:37;103647.53;;;0.70;81.61
79791;BME280;69278;52.220;5.172;2024-01-11T11:56:05;103614.69;;;0.59;81.71
79791;BME280;69278;52.220;5.172;2024-01-11T11:58:34;103645.69;;;0.90;81.06
79791;BME280;69278;52.220;5.172;2024-01-11T12:01:01;103644.81;;;0.95;81.35
79791;BME280;69278;52.220;5.172;2024-01-11T12:03:30;103630.13;;;0.90;81.35
79791;BME280;69278;52.220;5.172;2024-01-11T12:05:58;103623.25;;;0.89;80.99
79791;BME280;69278;52.220;5.172;2024-01-11T12:08:26;103599.00;;;0.93;81.03
79791;BME280;69278;52.220;5.172;2024-01-11T12:10:53;103611.00;;;1.12;81.17
79791;BME280;69278;52.220;5.172;2024-01-11T12:13:20;103593.72;;;1.11;80.80
79791;BME280;69278;52.220;5.172;2024-01-11T12:15:47;103590.28;;;1.09;81.16
79791;BME280;69278;52.220;5.172;2024-01-11T12:18:13;103579.88;;;1.10;80.49
79791;BME280;69278;52.220;5.172;2024-01-11T12:20:40;103596.22;;;1.27;81.09
79791;BME280;69278;52.220;5.172;2024-01-11T12:23:07;103583.25;;;1.21;80.90
79791;BME280;69278;52.220;5.172;2024-01-11T12:25:35;103596.16;;;1.38;80.82
79791;BME280;69278;52.220;5.172;2024-01-11T12:28:02;103584.03;;;1.34;80.45
79791;BME280;69278;52.220;5.172;2024-01-11T12:30:28;103589.22;;;1.40;80.50
79791;BME280;69278;52.220;5.172;2024-01-11T12:32:58;103595.22;;;1.44;80.88
79791;BME280;69278;52.220;5.172;2024-01-11T12:35:28;103526.25;;;1.11;80.58
79791;BME280;69278;52.220;5.172;2024-01-11T12:38:03;103547.72;;;1.31;80.68
79791;BME280;69278;52.220;5.172;2024-01-11T12:40:33;103578.75;;;1.46;80.53
79791;BME280;69278;52.220;5.172;2024-01-11T12:43:07;103580.50;;;1.50;80.99
79791;BME280;69278;52.220;5.172;2024-01-11T12:45:34;103547.72;;;1.32;80.63
79791;BME280;69278;52.220;5.172;2024-01-11T12:48:02;103561.50;;;1.42;80.50
79791;BME280;69278;52.220;5.172;2024-01-11T12:50:30;103572.63;;;1.56;80.61
79791;BME280;69278;52.220;5.172;2024-01-11T12:53:15;103564.88;;;1.52;80.97
79791;BME280;69278;52.220;5.172;2024-01-11T12:56:01;103563.97;;;1.56;80.66
79791;BME280;69278;52.220;5.172;2024-01-11T12:58:28;103567.44;;;1.56;80.92
79791;BME280;69278;52.220;5.172;2024-01-11T13:00:55;103560.50;;;1.58;80.14